createdAt,value
2022-10-24T00:01:19.747Z,10.38
2022-10-24T00:03:48.238Z,11.18
2022-10-24T00:06:16.441Z,9.65
2022-10-24T00:08:44.860Z,10.57
2022-10-24T00:11:19.416Z,11.02
2022-10-24T00:13:46.848Z,10.85
2022-10-24T00:16:14.954Z,11.18
2022-10-24T00:18:42.529Z,10.65
2022-10-24T00:21:10.521Z,10.80
2022-10-24T00:23:38.415Z,10.75
2022-10-24T00:26:06.627Z,11.07
2022-10-24T00:28:36.182Z,10.68
2022-10-24T00:31:05.635Z,11.00
2022-10-24T00:33:33.269Z,10.13
2022-10-24T00:36:00.600Z,10.55
2022-10-24T00:38:27.846Z,9.77
2022-10-24T00:40:55.081Z,10.68
2022-10-24T00:43:25.244Z,11.32
2022-10-24T00:45:56.813Z,10.40
2022-10-24T00:48:53.232Z,10.18
2022-10-24T00:51:27.837Z,10.32
2022-10-24T00:54:02.576Z,10.05
2022-10-24T00:56:34.502Z,10.43
2022-10-24T00:59:05.080Z,11.75
2022-10-24T01:01:34.089Z,10.00
2022-10-24T01:04:02.287Z,11.05
2022-10-24T01:06:59.503Z,11.30
2022-10-24T01:10:11.414Z,11.27
2022-10-24T01:12:53.517Z,11.60
2022-10-24T01:15:35.143Z,10.55
2022-10-24T01:18:24.219Z,10.55
2022-10-24T01:21:04.504Z,10.73
2022-10-24T01:23:34.287Z,10.82
2022-10-24T01:26:20.132Z,11.25
2022-10-24T01:29:16.882Z,10.88
2022-10-24T01:31:55.855Z,11.50
2022-10-24T01:34:40.743Z,10.50
2022-10-24T01:37:16.504Z,10.63
2022-10-24T01:40:12.779Z,11.63
2022-10-24T01:42:41.726Z,11.07
2022-10-24T01:45:13.902Z,10.90
2022-10-24T01:47:48.096Z,10.67
2022-10-24T01:50:19.208Z,11.68
2022-10-24T01:52:48.186Z,11.68
2022-10-24T01:55:15.739Z,12.57
2022-10-24T01:57:43.025Z,11.50
2022-10-24T02:00:17.912Z,10.82
2022-10-24T02:02:55.883Z,11.07
2022-10-24T02:05:29.768Z,10.68
2022-10-24T02:08:03.004Z,9.70
2022-10-24T02:10:35.475Z,10.70
2022-10-24T02:13:08.896Z,11.45
2022-10-24T02:15:46.737Z,11.05
2022-10-24T02:18:14.180Z,10.43
2022-10-24T02:21:16.734Z,11.13
2022-10-24T02:23:56.467Z,11.75
2022-10-24T02:26:33.968Z,11.77
2022-10-24T02:29:11.360Z,10.98
2022-10-24T02:31:44.606Z,11.70
2022-10-24T02:34:13.302Z,11.50
2022-10-24T02:36:42.978Z,10.93
2022-10-24T02:39:12.394Z,10.05
2022-10-24T02:41:42.167Z,10.90
2022-10-24T02:44:12.696Z,11.30
2022-10-24T02:46:42.135Z,11.38
2022-10-24T02:49:09.579Z,11.82
2022-10-24T02:51:40.406Z,10.93
2022-10-24T02:54:07.978Z,10.95
2022-10-24T02:56:37.315Z,11.13
2022-10-24T02:59:04.686Z,10.73
2022-10-24T03:01:32.026Z,10.70
2022-10-24T03:03:59.289Z,10.80
2022-10-24T03:06:26.609Z,10.48
2022-10-24T03:08:54.019Z,11.82
2022-10-24T03:11:21.294Z,11.20
2022-10-24T03:13:48.589Z,11.30
2022-10-24T03:16:15.921Z,11.63
2022-10-24T03:18:43.239Z,10.20
2022-10-24T03:21:10.721Z,10.52
2022-10-24T03:23:38.071Z,11.50
2022-10-24T03:26:05.453Z,11.27
2022-10-24T03:28:32.962Z,10.30
2022-10-24T03:31:00.230Z,10.32
2022-10-24T03:33:27.633Z,10.52
2022-10-24T03:35:55.593Z,10.70
2022-10-24T03:38:23.744Z,10.18
2022-10-24T03:40:51.374Z,10.90
2022-10-24T03:43:19.468Z,10.75
2022-10-24T03:45:46.731Z,10.65
2022-10-24T03:48:14.478Z,10.40
2022-10-24T03:50:42.042Z,10.73
2022-10-24T03:53:09.485Z,9.98
2022-10-24T03:55:36.774Z,10.38
2022-10-24T03:58:04.116Z,10.25
2022-10-24T04:00:34.636Z,10.27
2022-10-24T04:03:01.970Z,9.98
2022-10-24T04:05:29.277Z,10.90
2022-10-24T04:07:56.647Z,10.82
2022-10-24T04:10:23.954Z,10.90
2022-10-24T04:12:51.236Z,10.32
2022-10-24T04:15:18.638Z,9.75
2022-10-24T04:17:46.203Z,10.65
2022-10-24T04:20:13.794Z,11.18
2022-10-24T04:22:41.142Z,10.25
2022-10-24T04:25:08.599Z,10.48
2022-10-24T04:27:40.551Z,10.38
2022-10-24T04:30:14.051Z,9.10
2022-10-24T04:32:44.899Z,9.90
2022-10-24T04:35:13.996Z,10.88
2022-10-24T04:37:41.262Z,10.07
2022-10-24T04:40:09.183Z,9.95
2022-10-24T04:42:36.459Z,10.13
2022-10-24T04:45:04.268Z,10.05
2022-10-24T04:47:31.499Z,10.27
2022-10-24T04:49:58.860Z,10.23
2022-10-24T04:52:26.135Z,9.05
2022-10-24T04:54:53.468Z,10.20
2022-10-24T04:57:20.782Z,9.32
2022-10-24T04:59:47.904Z,10.00
2022-10-24T05:02:14.983Z,9.73
2022-10-24T05:04:42.425Z,9.50
2022-10-24T05:07:09.744Z,9.05
2022-10-24T05:09:37.124Z,9.50
2022-10-24T05:12:04.907Z,9.27
2022-10-24T05:14:32.309Z,9.90
2022-10-24T05:16:59.597Z,9.50
2022-10-24T05:19:26.947Z,8.82
2022-10-24T05:21:54.224Z,9.68
2022-10-24T05:24:21.364Z,9.93
2022-10-24T05:26:48.555Z,9.43
2022-10-24T05:29:15.700Z,8.73
2022-10-24T05:31:42.976Z,9.23
2022-10-24T05:34:10.307Z,9.48
2022-10-24T05:36:37.771Z,9.32
2022-10-24T05:39:05.018Z,9.82
2022-10-24T05:41:32.851Z,8.48
2022-10-24T05:44:00.041Z,9.32
2022-10-24T05:46:27.350Z,9.15
2022-10-24T05:48:54.259Z,8.98
2022-10-24T05:51:21.510Z,9.35
2022-10-24T05:53:48.799Z,9.43
2022-10-24T05:56:16.085Z,7.90
2022-10-24T05:58:43.241Z,9.43
2022-10-24T06:01:10.202Z,8.02
2022-10-24T06:03:37.327Z,8.90
2022-10-24T06:06:07.703Z,8.95
2022-10-24T06:08:36.097Z,8.80
2022-10-24T06:11:04.050Z,8.25
2022-10-24T06:13:35.243Z,8.68
2022-10-24T06:16:06.152Z,9.00
2022-10-24T06:18:33.366Z,8.93
2022-10-24T06:21:02.210Z,7.85
2022-10-24T06:23:29.578Z,8.82
2022-10-24T06:25:57.129Z,9.00
2022-10-24T06:28:25.103Z,8.57
2022-10-24T06:30:54.574Z,7.72
2022-10-24T06:33:21.837Z,8.43
2022-10-24T06:35:49.259Z,8.00
2022-10-24T06:38:16.484Z,8.13
2022-10-24T06:40:43.727Z,8.10
2022-10-24T06:43:11.034Z,8.05
2022-10-24T06:45:38.821Z,8.18
2022-10-24T06:48:06.324Z,7.82
2022-10-24T06:50:33.573Z,8.30
2022-10-24T06:53:00.848Z,8.38
2022-10-24T06:55:28.089Z,7.57
2022-10-24T06:57:55.383Z,8.13
2022-10-24T07:00:22.647Z,7.53
2022-10-24T07:02:50.044Z,8.15
2022-10-24T07:05:17.494Z,7.68
2022-10-24T07:07:45.408Z,7.45
2022-10-24T07:10:14.578Z,7.68
2022-10-24T07:12:43.561Z,7.35
2022-10-24T07:15:11.841Z,8.30
2022-10-24T07:17:43.718Z,7.90
2022-10-24T07:20:12.875Z,7.18
2022-10-24T07:22:40.722Z,6.85
2022-10-24T07:25:08.668Z,7.90
2022-10-24T07:27:36.085Z,8.25
2022-10-24T07:30:06.131Z,7.90
2022-10-24T07:32:34.259Z,7.78
2022-10-24T07:35:01.694Z,7.43
2022-10-24T07:37:29.054Z,8.00
2022-10-24T07:39:56.262Z,7.32
2022-10-24T07:42:23.676Z,7.43
2022-10-24T07:44:50.938Z,7.05
2022-10-24T07:47:18.308Z,7.63
2022-10-24T07:49:45.585Z,7.90
2022-10-24T07:52:12.911Z,7.00
2022-10-24T07:54:40.260Z,7.43
2022-10-24T07:57:07.535Z,7.05
2022-10-24T07:59:42.133Z,7.72
2022-10-24T08:02:14.454Z,7.63
2022-10-24T08:04:41.837Z,6.43
2022-10-24T08:07:13.716Z,7.28
2022-10-24T08:09:43.670Z,6.80
2022-10-24T08:12:11.477Z,7.47
2022-10-24T08:14:40.641Z,7.03
2022-10-24T08:17:08.264Z,7.38
2022-10-24T08:19:36.278Z,7.72
2022-10-24T08:22:04.292Z,7.35
2022-10-24T08:24:31.568Z,7.15
2022-10-24T08:26:59.401Z,6.53
2022-10-24T08:29:26.632Z,7.50
2022-10-24T08:31:55.708Z,6.80
2022-10-24T08:34:23.501Z,6.90
2022-10-24T08:36:51.295Z,6.95
2022-10-24T08:39:19.090Z,7.43
2022-10-24T08:41:54.521Z,7.22
2022-10-24T08:44:41.217Z,6.55
2022-10-24T08:47:32.806Z,7.53
2022-10-24T08:50:23.219Z,7.13
2022-10-24T08:53:06.028Z,7.20
2022-10-24T08:55:49.183Z,6.65
2022-10-24T08:58:29.140Z,7.32
2022-10-24T09:00:59.674Z,7.15
2022-10-24T09:03:55.195Z,7.93
2022-10-24T09:06:29.050Z,7.07
2022-10-24T09:09:05.901Z,6.97
2022-10-24T09:12:20.525Z,7.10
2022-10-24T09:14:55.402Z,7.18
2022-10-24T09:17:37.323Z,6.95
2022-10-24T09:20:30.436Z,7.38
2022-10-24T09:23:04.214Z,6.93
2022-10-24T09:25:35.297Z,7.45
2022-10-24T09:28:04.898Z,7.25
2022-10-24T09:30:34.200Z,6.93
2022-10-24T09:33:13.250Z,7.60
2022-10-24T09:35:42.767Z,7.30
2022-10-24T09:38:33.744Z,7.55
2022-10-24T09:41:08.278Z,7.20
2022-10-24T09:43:56.163Z,7.25
2022-10-24T09:46:29.554Z,7.50
2022-10-24T09:49:05.265Z,7.43
2022-10-24T09:51:41.098Z,6.93
2022-10-24T09:54:21.354Z,7.05
2022-10-24T09:56:55.755Z,6.72
2022-10-24T09:59:42.535Z,7.70
2022-10-24T10:02:19.930Z,7.38
2022-10-24T10:04:49.651Z,7.32
2022-10-24T10:07:20.270Z,7.18
2022-10-24T10:09:56.693Z,8.48
2022-10-24T10:12:35.334Z,7.78
2022-10-24T10:15:25.051Z,8.40
2022-10-24T10:17:55.597Z,7.97
2022-10-24T10:20:31.867Z,8.05
2022-10-24T10:23:24.498Z,7.85
2022-10-24T10:26:22.263Z,7.97
2022-10-24T10:28:58.833Z,8.35
2022-10-24T10:31:40.531Z,8.02
2022-10-24T10:34:38.156Z,7.18
2022-10-24T10:37:05.571Z,7.90
2022-10-24T10:39:54.213Z,7.90
2022-10-24T10:42:35.097Z,8.82
2022-10-24T10:45:35.343Z,8.32
2022-10-24T10:48:18.216Z,7.93
2022-10-24T10:51:08.155Z,8.13
2022-10-24T10:54:07.424Z,8.23
2022-10-24T10:56:53.411Z,8.32
2022-10-24T10:59:31.098Z,7.97
2022-10-24T11:02:11.963Z,7.57
2022-10-24T11:04:45.100Z,8.25
2022-10-24T11:09:47.587Z,8.38
2022-10-24T11:12:25.489Z,8.00
2022-10-24T11:15:21.658Z,8.32
2022-10-24T11:18:06.351Z,8.57
2022-10-24T11:20:53.185Z,8.43
2022-10-24T11:23:30.209Z,8.38
2022-10-24T11:26:05.873Z,8.65
2022-10-24T11:28:54.093Z,8.80
2022-10-24T11:31:37.992Z,8.77
2022-10-24T11:34:32.659Z,8.95
2022-10-24T11:36:59.942Z,8.48
2022-10-24T11:39:36.512Z,8.52
2022-10-24T11:42:19.133Z,9.48
2022-10-24T11:44:58.761Z,8.57
2022-10-24T11:47:26.017Z,8.35
2022-10-24T11:50:05.513Z,8.90
2022-10-24T11:52:37.897Z,8.98
2022-10-24T11:55:21.954Z,8.13
2022-10-24T11:57:54.084Z,9.52
2022-10-24T12:00:29.284Z,8.73
2022-10-24T12:03:21.175Z,8.50
2022-10-24T12:06:14.206Z,8.82
2022-10-24T12:08:50.635Z,8.77
2022-10-24T12:11:20.690Z,8.52
2022-10-24T12:14:09.663Z,9.02
2022-10-24T12:17:07.217Z,8.63
2022-10-24T12:19:36.870Z,9.32
2022-10-24T12:22:06.218Z,7.88
2022-10-24T12:24:39.039Z,8.27
2022-10-24T12:27:20.616Z,8.30
2022-10-24T12:30:02.267Z,8.85
2022-10-24T12:32:45.144Z,8.57
2022-10-24T12:37:59.843Z,8.30
2022-10-24T12:40:45.659Z,9.32
2022-10-24T12:43:38.550Z,8.27
2022-10-24T12:46:17.809Z,9.52
2022-10-24T12:51:28.569Z,9.18
2022-10-24T12:54:15.310Z,9.60
2022-10-24T12:56:52.266Z,9.32
2022-10-24T12:59:25.407Z,8.88
2022-10-24T13:04:56.032Z,8.95
2022-10-24T13:07:35.432Z,9.47
2022-10-24T13:10:23.582Z,9.65
2022-10-24T13:13:12.833Z,9.95
2022-10-24T13:16:12.417Z,9.50
2022-10-24T13:18:45.852Z,10.25
2022-10-24T13:21:23.357Z,9.43
2022-10-24T13:24:00.519Z,9.90
2022-10-24T13:26:51.612Z,10.25
2022-10-24T13:29:28.286Z,9.73
2022-10-24T13:32:18.684Z,9.38
2022-10-24T13:34:56.483Z,10.23
2022-10-24T13:38:15.332Z,10.07
2022-10-24T13:40:44.668Z,9.75
2022-10-24T13:43:21.338Z,9.80
2022-10-24T13:46:13.030Z,10.35
2022-10-24T13:48:47.977Z,9.77
2022-10-24T13:51:46.057Z,9.68
2022-10-24T13:54:19.466Z,9.48
2022-10-24T13:56:48.411Z,9.80
2022-10-24T13:59:32.036Z,9.43
2022-10-24T14:02:03.276Z,9.05
2022-10-24T14:04:31.574Z,9.55
2022-10-24T14:07:07.192Z,9.40
2022-10-24T14:09:42.788Z,9.68
2022-10-24T14:12:21.827Z,8.88
2022-10-24T14:14:51.470Z,9.73
2022-10-24T14:17:23.813Z,9.52
2022-10-24T14:20:00.692Z,10.10
2022-10-24T14:22:39.911Z,10.23
2022-10-24T14:25:47.474Z,9.68
2022-10-24T14:28:17.854Z,9.75
2022-10-24T14:30:57.480Z,9.25
2022-10-24T14:33:29.648Z,10.10
2022-10-24T14:36:00.275Z,10.87
2022-10-24T14:38:28.643Z,10.50
2022-10-24T14:41:08.414Z,10.50
2022-10-24T14:43:42.346Z,10.20
2022-10-24T14:46:13.861Z,10.73
2022-10-24T14:48:44.549Z,10.07
2022-10-24T14:51:24.503Z,9.45
2022-10-24T14:53:52.393Z,10.35
2022-10-24T14:56:27.913Z,10.45
2022-10-24T14:58:57.043Z,9.85
2022-10-24T15:01:25.346Z,9.90
2022-10-24T15:04:03.489Z,10.13
2022-10-24T15:06:40.305Z,10.13
2022-10-24T15:09:10.674Z,9.15
2022-10-24T15:11:47.150Z,9.68
2022-10-24T15:14:49.149Z,10.05
2022-10-24T15:17:22.288Z,9.80
2022-10-24T15:19:54.181Z,10.18
2022-10-24T15:22:27.575Z,9.18
2022-10-24T15:24:57.135Z,9.32
2022-10-24T15:27:30.664Z,10.05
2022-10-24T15:29:57.932Z,10.02
2022-10-24T15:32:26.574Z,10.50
2022-10-24T15:34:54.760Z,10.65
2022-10-24T15:37:24.566Z,10.43
2022-10-24T15:39:54.047Z,10.40
2022-10-24T15:42:22.677Z,9.57
2022-10-24T15:44:50.340Z,9.32
2022-10-24T15:47:17.692Z,10.43
2022-10-24T15:49:44.966Z,9.93
2022-10-24T15:52:15.170Z,10.32
2022-10-24T15:55:17.503Z,9.70
2022-10-24T15:57:45.038Z,11.00
2022-10-24T16:00:16.019Z,14.25
2022-10-24T16:02:45.862Z,18.73
2022-10-24T16:05:29.530Z,20.80
2022-10-24T16:08:06.131Z,23.70
2022-10-24T16:10:33.388Z,20.13
2022-10-24T16:13:00.711Z,20.95
2022-10-24T16:15:33.641Z,20.33
2022-10-24T16:18:07.253Z,18.73
2022-10-24T16:20:35.000Z,19.27
2022-10-24T16:23:02.579Z,18.67
2022-10-24T16:27:11.174Z,19.65
2022-10-24T16:29:54.310Z,18.08
2022-10-24T16:32:21.613Z,18.50
2022-10-24T16:34:57.576Z,19.25
2022-10-24T16:37:24.926Z,20.05
2022-10-24T16:39:52.163Z,20.48
2022-10-24T16:42:22.328Z,21.75
2022-10-24T16:44:50.869Z,22.15
2022-10-24T16:47:18.253Z,21.88
2022-10-24T16:49:45.513Z,21.33
2022-10-24T16:52:13.381Z,18.42
2022-10-24T16:54:40.691Z,18.65
2022-10-24T16:57:07.953Z,19.27
2022-10-24T16:59:35.200Z,18.08
2022-10-24T17:02:03.555Z,17.48
2022-10-24T17:04:32.893Z,17.23
2022-10-24T17:07:09.503Z,17.40
2022-10-24T17:09:36.944Z,16.63
2022-10-24T17:12:06.524Z,17.40
2022-10-24T17:14:35.059Z,16.67
2022-10-24T17:17:08.485Z,16.55
2022-10-24T17:19:37.593Z,15.63
2022-10-24T17:22:05.004Z,14.95
2022-10-24T17:24:37.791Z,14.13
2022-10-24T17:27:13.325Z,16.05
2022-10-24T17:29:40.994Z,14.70
2022-10-24T17:32:21.129Z,14.63
2022-10-24T17:34:53.366Z,14.23
2022-10-24T17:37:41.194Z,15.07
2022-10-24T17:40:23.197Z,15.25
2022-10-24T17:42:51.265Z,16.05
2022-10-24T17:45:31.893Z,14.80
2022-10-24T17:48:15.354Z,14.75
2022-10-24T17:50:42.754Z,15.63
2022-10-24T17:53:21.092Z,14.20
2022-10-24T17:55:48.507Z,13.73
2022-10-24T17:58:16.660Z,14.90
2022-10-24T18:00:45.458Z,14.20
2022-10-24T18:03:15.712Z,13.70
2022-10-24T18:05:46.207Z,15.07
2022-10-24T18:08:14.489Z,13.73
2022-10-24T18:10:42.205Z,13.70
2022-10-24T18:13:09.655Z,14.25
2022-10-24T18:15:42.575Z,13.70
2022-10-24T18:18:09.877Z,13.38
2022-10-24T18:20:37.376Z,14.70
2022-10-24T18:23:04.596Z,14.15
2022-10-24T18:25:33.556Z,12.77
2022-10-24T18:28:00.806Z,13.98
2022-10-24T18:30:28.149Z,13.85
2022-10-24T18:32:55.539Z,14.98
2022-10-24T18:35:23.031Z,13.55
2022-10-24T18:40:18.374Z,14.35
2022-10-24T18:42:55.093Z,13.18
2022-10-24T18:45:26.711Z,14.38
2022-10-24T18:47:57.065Z,13.88
2022-10-24T18:50:25.568Z,14.95
2022-10-24T18:53:22.624Z,13.95
2022-10-24T18:55:51.246Z,13.38
2022-10-24T18:58:22.380Z,13.40
2022-10-24T19:00:51.800Z,14.27
2022-10-24T19:03:22.841Z,14.57
2022-10-24T19:05:54.841Z,13.90
2022-10-24T19:08:25.321Z,15.00
2022-10-24T19:10:55.887Z,13.65
2022-10-24T19:13:27.427Z,13.02
2022-10-24T19:15:58.340Z,14.70
2022-10-24T19:18:30.858Z,13.77
2022-10-24T19:20:59.399Z,13.73
2022-10-24T19:23:26.843Z,13.50
2022-10-24T19:25:54.177Z,13.68
2022-10-24T19:28:21.552Z,13.25
2022-10-24T19:30:49.372Z,13.25
2022-10-24T19:33:16.883Z,12.05
2022-10-24T19:35:48.096Z,12.38
2022-10-24T19:38:17.429Z,12.52
2022-10-24T19:40:51.527Z,12.68
2022-10-24T19:43:28.353Z,13.30
2022-10-24T19:46:19.800Z,11.90
2022-10-24T19:48:49.457Z,11.95
2022-10-24T19:51:18.257Z,12.98
2022-10-24T19:53:46.729Z,11.90
2022-10-24T19:56:20.079Z,13.43
2022-10-24T19:58:50.309Z,12.20
2022-10-24T20:01:21.748Z,11.60
2022-10-24T20:03:50.597Z,12.35
2022-10-24T20:06:18.556Z,11.93
2022-10-24T20:08:47.467Z,12.13
2022-10-24T20:11:16.241Z,11.20
2022-10-24T20:13:46.129Z,13.00
2022-10-24T20:16:13.778Z,11.55
2022-10-24T20:18:43.338Z,11.07
2022-10-24T20:21:13.838Z,11.65
2022-10-24T20:23:41.785Z,10.95
2022-10-24T20:26:13.983Z,10.80
2022-10-24T20:28:46.489Z,11.53
2022-10-24T20:31:29.079Z,11.23
2022-10-24T20:34:02.212Z,12.02
2022-10-24T20:36:32.909Z,11.57
2022-10-24T20:39:01.524Z,11.15
2022-10-24T20:41:29.565Z,10.77
2022-10-24T20:44:01.401Z,10.63
2022-10-24T20:46:28.817Z,10.70
2022-10-24T20:48:56.883Z,11.55
2022-10-24T20:51:29.262Z,11.05
2022-10-24T20:53:56.673Z,10.23
2022-10-24T20:56:26.187Z,9.90
2022-10-24T20:58:55.361Z,11.05
2022-10-24T21:01:25.378Z,10.20
2022-10-24T21:03:53.976Z,10.00
2022-10-24T21:06:23.775Z,9.82
2022-10-24T21:08:52.699Z,10.32
2022-10-24T21:11:26.807Z,10.43
2022-10-24T21:13:57.036Z,9.82
2022-10-24T21:16:25.489Z,9.57
2022-10-24T21:18:53.221Z,9.27
2022-10-24T21:21:22.037Z,11.23
2022-10-24T21:23:54.768Z,11.20
2022-10-24T21:26:22.135Z,10.30
2022-10-24T21:28:50.252Z,10.30
2022-10-24T21:31:22.841Z,9.98
2022-10-24T21:33:50.997Z,10.32
2022-10-24T21:36:21.337Z,8.95
2022-10-24T21:38:51.092Z,10.15
2022-10-24T21:41:21.921Z,9.75
2022-10-24T21:43:50.821Z,10.25
2022-10-24T21:46:21.236Z,9.00
2022-10-24T21:48:49.898Z,10.43
2022-10-24T21:51:26.312Z,9.32
2022-10-24T21:54:06.155Z,8.55
2022-10-24T21:56:36.920Z,9.57
2022-10-24T21:59:06.733Z,9.48
2022-10-24T22:01:36.488Z,9.27
2022-10-24T22:04:05.376Z,8.65
2022-10-24T22:06:33.972Z,8.30
2022-10-24T22:09:02.188Z,8.93
2022-10-24T22:11:31.604Z,8.27
2022-10-24T22:13:59.313Z,7.65
2022-10-24T22:16:29.191Z,8.75
2022-10-24T22:18:59.311Z,7.53
2022-10-24T22:21:31.282Z,8.77
2022-10-24T22:24:00.991Z,7.30
2022-10-24T22:26:29.374Z,8.30
2022-10-24T22:28:57.063Z,8.52
2022-10-24T22:31:26.440Z,7.97
2022-10-24T22:33:54.929Z,8.95
2022-10-24T22:36:59.484Z,8.40
2022-10-24T22:39:27.326Z,8.05
2022-10-24T22:41:55.428Z,7.40
2022-10-24T22:44:23.091Z,7.65
2022-10-24T22:47:10.749Z,7.65
2022-10-24T22:49:50.041Z,7.63
2022-10-24T22:52:17.623Z,8.13
2022-10-24T22:54:45.362Z,7.30
2022-10-24T22:57:12.923Z,7.38
2022-10-24T22:59:40.416Z,8.05
2022-10-24T23:02:25.125Z,8.70
2022-10-24T23:05:24.878Z,8.30
2022-10-24T23:08:05.696Z,8.13
2022-10-24T23:10:33.846Z,7.57
2022-10-24T23:13:01.468Z,8.23
2022-10-24T23:15:29.038Z,8.43
2022-10-24T23:17:56.680Z,7.25
2022-10-24T23:20:35.487Z,8.02
2022-10-24T23:23:16.143Z,7.03
2022-10-24T23:25:56.282Z,7.25
2022-10-24T23:28:41.538Z,7.53
2022-10-24T23:31:09.228Z,7.50
2022-10-24T23:33:36.739Z,7.45
2022-10-24T23:36:04.257Z,7.32
2022-10-24T23:38:32.580Z,7.57
2022-10-24T23:41:00.148Z,7.38
2022-10-24T23:43:27.732Z,7.85
2022-10-24T23:46:00.045Z,7.15
2022-10-24T23:48:45.503Z,7.50
2022-10-24T23:51:17.511Z,8.32
2022-10-24T23:53:49.949Z,6.75
2022-10-24T23:56:23.315Z,7.80
2022-10-24T23:58:51.341Z,7.35
